Dane County Regional Truax Field
KMSN : now visible

Airfield :











YOU CAN JOIN US ON...

 
LOGIN :

Register | Disclaimer

   EN    FR    IT 

 









Legend :    VFR   Marginal VFR   IFR   Intensive IFR   Very Intensive IFR
Visi :
Ceiling :
>= 8 km
>= 3000ft
5 to 8 km
1000 to 3000 ft
1500m to 5 km
500 to 1000 ft
800 to 1500m
200 to 500 ft
< 800m
< 200 ft
Symbols :   Thunderstorms  Fog  Heavy snow  Heavy precipitations  Wind > 20 kt







- Airport Elevation : 887 ft
- IATA code : MSN


KMSN - Dane County Regional Truax Field

CURRENT METAR :
  • 190953Z AUTO 34004KT 8SM CLR 16/16 A2997 RMK AO2 SLP147 T01610156

EXPIRED METARs :
  • 190915Z AUTO 35005KT 3SM BR CLR 16/15 A2997 RMK AO2 T01560150
  • 190900Z AUTO 35003KT 1 3/4SM BR FEW002 17/16 A2997 RMK AO2 VIS 1V5 T01670156
  • 190853Z AUTO 00000KT 6SM BR FEW002 FEW032 16/16 A2996 RMK AO2 SLP144 T01610156 51007
  • 190843Z AUTO 00000KT 2 1/2SM BR FEW002 BKN032 17/16 A2996 RMK AO2 VIS 1 1/4V5 T01670156
  • 190812Z AUTO 00000KT 4SM BR OVC032 17/16 A2996 RMK AO2 T01670156
  • 190753Z AUTO 00000KT 1SM R36/P6000FT BR SCT033 17/16 A2996 RMK AO2 SLP140 T01670161
  • 190714Z AUTO 00000KT 4SM BR CLR 17/17 A2995 RMK AO2 T01720167
  • 190706Z AUTO 00000KT 2 1/2SM BR CLR 17/17 A2994 RMK AO2 VIS 1 1/2V5 T01720167

TAF KMSN
Valid from the 19 at 07:00 until the 20 at 06:00 UTC


190723Z 1907/2006 23003KT P6SM FEW250
TEMPO 1907/1911 4SM BR
FM191100 VRB03KT 6SM BR SKC
FM191300 VRB03KT P6SM FEW050
No reported NOTAMs for that airfield.



MET'MAP, your aeronautical weather chart ! - Copyright ORBIFLY December 2007 - Disclaimer

ORBIFLY MET'MAP TEAM :

Programming & Development : Alexandra Zaïnal
Concept & Development : Baudouin d'Aumeries
Co-Development & Prog : Marc-Olivier Méhu
Technical & hardware support : Manuel Goepfert

Contact : metmap@orbifly.com




SOURCES & CREDITS :

   NOAA       Earth
Advisory